Sturgeon, Pennsylvania
Current Conditions -  °F | °C
As of 6:51 PM on Monday 20 Oct 2014 (Local Time) from KPIT Reporting Station
Overcast Overcast  
Wind Chill: 55°   Ceiling: 9500
Heat Index: 55°   Visibility: 10mi
Dew Point: 42°   Wind: 7mph
Humidity: 62%   Direction: 190°S
Pressure: 29.88"   Gusts: NA
Location:  40.38°N, 80.21°W
Report Text: KPIT 202251Z 19006KT 10SM FEW045 BKN095 OVC220 13/06 A2988 RMK AO2 SLP128 T01280056
Loading
Personal Weather Stations






























Interactive Weather Map
Tropical Storm Tracking
New forecast layout! Learn more

10-Day Weather Forecast

Advertisements
Track Severe Weather on mobile